Main page
METAR-TAF:

METAR-TAF

Airports :

Kirkwall Airport

Kirkwall, Scotland

latitude: 58-57N, longitude: 002-54W, elevation: 21 m

Current weather observation

The report was made 15 minutes ago, at 19:50 UTC
Wind 8 kt from the North
Temperature 13°C
Humidity 94%
Pressure 999 hPa
Visibility 10 km or more

METAR: EGPA 281950Z AUTO 36008KT 9999 OVC001/// 13/12 Q0999

Time: 21:05 (20:05 UTC)

Forecast

The report was made 1 hour and 41 minutes ago, at 18:24 UTC
Forecast valid from 28 at 18 UTC to 29 at 03 UTC
Wind 9 kt from the Northeast
Visibility 10 km or more
Broken clouds at a height of 400 ft
Temporary
from 28 at 18 UTC to 29 at 03 UTC
Visibility: 2000 m
rain, mist
Probability 40% :
Temporary
from 28 at 18 UTC to 29 at 03 UTC
Visibility: 0300 m
fog

TAF: EGPA 281824Z 2818/2903 04009KT 9999 BKN004 TEMPO 2818/2903 2000 RA BR PROB40 TEMPO 2818/2903 0300 FG VV///

Weather observations and forecasts of more than 4000 airports (METAR and TAF reports).

The available stations are represented by yellow and red dots on the map.

Hover mouse over dot to see the name of the station.

Then click to see weather observations and forecasts.

To change the map : click on the green buttons with a black cross to zoom in, on the green button with a dash to zoom out, or on the green arrows for adjacent maps.


METAR-TAF: